createdAt,value
2023-12-11T00:00:57.131Z,13.10
2023-12-11T00:03:24.232Z,13.00
2023-12-11T00:05:51.300Z,13.00
2023-12-11T00:08:18.163Z,13.00
2023-12-11T00:10:45.047Z,13.00
2023-12-11T00:13:11.965Z,13.10
2023-12-11T00:15:40.268Z,13.00
2023-12-11T00:18:07.804Z,13.00
2023-12-11T00:20:34.902Z,13.10
2023-12-11T00:23:01.816Z,13.10
2023-12-11T00:25:29.271Z,13.10
2023-12-11T00:27:56.372Z,13.10
2023-12-11T00:30:23.485Z,13.10
2023-12-11T00:32:50.437Z,13.20
2023-12-11T00:35:17.352Z,13.20
2023-12-11T00:37:44.797Z,13.30
2023-12-11T00:40:12.075Z,13.30
2023-12-11T00:42:39.079Z,13.40
2023-12-11T00:45:06.780Z,13.30
2023-12-11T00:47:33.980Z,13.40
2023-12-11T00:50:02.933Z,13.30
2023-12-11T00:52:31.393Z,13.30
2023-12-11T00:54:58.343Z,13.30
2023-12-11T00:57:25.201Z,13.30
2023-12-11T00:59:52.283Z,13.30
2023-12-11T01:02:19.302Z,13.30
2023-12-11T01:04:46.290Z,13.40
2023-12-11T01:07:13.228Z,13.60
2023-12-11T01:09:42.512Z,13.40
2023-12-11T01:12:09.455Z,13.30
2023-12-11T01:14:38.804Z,13.40
2023-12-11T01:17:36.414Z,13.40
2023-12-11T01:19:52.640Z,13.40
2023-12-11T01:22:19.570Z,13.40
2023-12-11T01:24:46.522Z,13.30
2023-12-11T01:27:13.421Z,13.40
2023-12-11T01:29:40.360Z,13.40
2023-12-11T01:32:07.330Z,13.40
2023-12-11T01:34:34.260Z,13.30
2023-12-11T01:37:01.396Z,13.30
2023-12-11T01:39:28.438Z,13.20
2023-12-11T01:41:55.379Z,13.20
2023-12-11T01:44:22.325Z,13.30
2023-12-11T01:46:49.249Z,13.30
2023-12-11T01:49:17.051Z,13.40
2023-12-11T01:51:44.505Z,13.40
2023-12-11T01:54:11.581Z,13.50
2023-12-11T01:56:38.955Z,13.40
2023-12-11T01:59:05.972Z,13.40
2023-12-11T02:01:33.526Z,13.50
2023-12-11T02:04:00.864Z,13.40
2023-12-11T02:06:27.833Z,13.40
2023-12-11T02:08:54.837Z,13.50
2023-12-11T02:11:21.759Z,13.40
2023-12-11T02:13:48.611Z,13.40
2023-12-11T02:16:18.726Z,13.40
2023-12-11T02:18:46.241Z,13.40
2023-12-11T02:21:13.402Z,13.40
2023-12-11T02:23:52.433Z,13.40
2023-12-11T02:26:20.253Z,13.40
2023-12-11T02:28:47.268Z,13.40
2023-12-11T02:31:14.643Z,13.30
2023-12-11T02:33:42.062Z,13.30
2023-12-11T02:36:09.444Z,13.20
2023-12-11T02:38:36.359Z,13.30
2023-12-11T02:41:03.509Z,13.20
2023-12-11T02:43:30.461Z,13.20
2023-12-11T02:45:57.404Z,13.30
2023-12-11T02:48:24.394Z,13.20
2023-12-11T02:50:51.311Z,13.30
2023-12-11T02:53:18.192Z,13.30
2023-12-11T02:55:45.074Z,13.30
2023-12-11T02:58:12.105Z,13.30
2023-12-11T03:00:39.222Z,13.10
2023-12-11T03:03:08.241Z,13.30
2023-12-11T03:05:35.245Z,13.20
2023-12-11T03:08:06.266Z,13.20
2023-12-11T03:10:34.026Z,13.10
2023-12-11T03:13:01.189Z,13.10
2023-12-11T03:15:28.216Z,13.20
2023-12-11T03:17:55.103Z,13.10
2023-12-11T03:20:21.995Z,13.10
2023-12-11T03:22:48.906Z,13.10
2023-12-11T03:25:15.877Z,13.10
2023-12-11T03:27:42.856Z,13.10
2023-12-11T03:30:10.089Z,13.00
2023-12-11T03:32:37.753Z,13.00
2023-12-11T03:35:05.252Z,13.00
2023-12-11T03:37:32.453Z,13.00
2023-12-11T03:39:59.604Z,12.90
2023-12-11T03:42:26.664Z,13.00
2023-12-11T03:44:55.208Z,13.00
2023-12-11T03:47:24.874Z,13.00
2023-12-11T03:49:52.669Z,13.00
2023-12-11T03:52:19.674Z,13.00
2023-12-11T03:54:46.552Z,13.10
2023-12-11T03:57:13.594Z,13.00
2023-12-11T03:59:41.403Z,13.10
2023-12-11T04:02:08.411Z,13.10
2023-12-11T04:04:35.486Z,13.10
2023-12-11T04:07:02.603Z,13.10
2023-12-11T04:09:29.498Z,13.10
2023-12-11T04:11:56.364Z,13.20
2023-12-11T04:14:23.289Z,13.20
2023-12-11T04:16:50.654Z,13.20
2023-12-11T04:19:17.648Z,13.20
2023-12-11T04:21:44.823Z,13.30
2023-12-11T04:24:14.193Z,13.30
2023-12-11T04:26:42.221Z,13.30
2023-12-11T04:29:09.107Z,13.30
2023-12-11T04:31:35.990Z,13.30
2023-12-11T04:34:03.275Z,13.30
2023-12-11T04:36:30.418Z,13.20
2023-12-11T04:38:57.307Z,13.20
2023-12-11T04:41:24.135Z,13.20
2023-12-11T04:43:51.213Z,13.20
2023-12-11T04:46:18.141Z,13.30
2023-12-11T04:48:45.197Z,13.30
2023-12-11T04:51:12.160Z,13.30
2023-12-11T04:53:39.079Z,13.30
2023-12-11T04:56:09.622Z,13.30
2023-12-11T04:58:36.541Z,13.30
2023-12-11T05:01:03.977Z,13.30
2023-12-11T05:03:31.184Z,13.30
2023-12-11T05:05:58.094Z,13.30
2023-12-11T05:08:28.097Z,13.30
2023-12-11T05:10:56.942Z,13.20
2023-12-11T05:13:23.818Z,13.20
2023-12-11T05:15:50.885Z,13.20
2023-12-11T05:18:17.882Z,13.20
2023-12-11T05:20:44.809Z,13.20
2023-12-11T05:23:11.976Z,13.20
2023-12-11T05:25:38.917Z,13.20
2023-12-11T05:28:05.896Z,13.20
2023-12-11T05:30:32.902Z,13.20
2023-12-11T05:33:00.846Z,13.20
2023-12-11T05:35:27.847Z,13.20
2023-12-11T05:37:59.687Z,13.20
2023-12-11T05:40:27.030Z,13.30
2023-12-11T05:42:54.165Z,13.30
2023-12-11T05:45:21.162Z,13.30
2023-12-11T05:47:48.128Z,13.30
2023-12-11T05:50:15.226Z,13.30
2023-12-11T05:52:42.340Z,13.30
2023-12-11T05:55:09.414Z,13.30
2023-12-11T05:57:36.373Z,13.20
2023-12-11T06:00:04.825Z,13.20
2023-12-11T06:02:32.230Z,13.20
2023-12-11T06:04:59.294Z,13.20
2023-12-11T06:07:26.220Z,13.20
2023-12-11T06:09:53.089Z,13.20
2023-12-11T06:12:19.996Z,13.30
2023-12-11T06:14:49.293Z,13.20
2023-12-11T06:17:16.803Z,13.30
2023-12-11T06:19:44.089Z,13.30
2023-12-11T06:22:11.350Z,13.20
2023-12-11T06:24:42.191Z,13.20
2023-12-11T06:27:09.534Z,13.20
2023-12-11T06:29:37.468Z,13.10
2023-12-11T06:32:04.794Z,13.10
2023-12-11T06:34:33.024Z,13.00
2023-12-11T06:37:00.223Z,13.00
2023-12-11T06:39:28.296Z,13.00
2023-12-11T06:41:55.438Z,13.00
2023-12-11T06:44:23.444Z,13.00
2023-12-11T06:46:50.422Z,13.00
2023-12-11T06:49:17.470Z,13.00
2023-12-11T06:51:44.524Z,13.00
2023-12-11T06:54:12.344Z,13.00
2023-12-11T06:56:40.161Z,13.00
2023-12-11T06:59:07.300Z,13.00
2023-12-11T07:01:35.393Z,13.00
2023-12-11T07:04:03.491Z,13.00
2023-12-11T07:06:30.525Z,12.90
2023-12-11T07:08:57.490Z,12.90
2023-12-11T07:11:25.617Z,12.80
2023-12-11T07:13:53.848Z,12.80
2023-12-11T07:16:21.074Z,12.90
2023-12-11T07:18:48.310Z,12.90
2023-12-11T07:21:15.323Z,12.80
2023-12-11T07:23:42.704Z,12.80
2023-12-11T07:26:09.990Z,12.80
2023-12-11T07:28:38.039Z,12.80
2023-12-11T07:31:06.789Z,12.80
2023-12-11T07:33:34.577Z,12.70
2023-12-11T07:36:02.238Z,12.80
2023-12-11T07:38:29.846Z,12.80
2023-12-11T07:40:59.278Z,12.80
2023-12-11T07:43:26.182Z,12.80
2023-12-11T07:45:53.974Z,12.80
2023-12-11T07:48:21.245Z,12.80
2023-12-11T07:50:48.377Z,12.80
2023-12-11T07:53:15.294Z,12.80
2023-12-11T07:55:42.299Z,12.80
2023-12-11T07:58:09.370Z,12.80
2023-12-11T08:00:36.383Z,12.70
2023-12-11T08:03:05.367Z,12.70
2023-12-11T08:05:32.693Z,12.70
2023-12-11T08:07:59.742Z,12.80
2023-12-11T08:10:26.830Z,12.70
2023-12-11T08:12:54.244Z,12.70
2023-12-11T08:15:21.335Z,12.80
2023-12-11T08:17:48.352Z,12.80
2023-12-11T08:20:18.431Z,12.80
2023-12-11T08:22:46.033Z,12.80
2023-12-11T08:25:14.796Z,12.80
2023-12-11T08:27:43.631Z,12.70
2023-12-11T08:30:12.287Z,12.70
2023-12-11T08:32:40.566Z,12.80
2023-12-11T08:35:08.928Z,12.70
2023-12-11T08:37:37.040Z,12.80
2023-12-11T08:40:07.688Z,12.80
2023-12-11T08:42:40.430Z,12.80
2023-12-11T08:45:09.825Z,12.80
2023-12-11T08:47:39.493Z,12.80
2023-12-11T08:50:08.760Z,12.80
2023-12-11T08:52:37.103Z,12.80
2023-12-11T08:55:04.437Z,12.80
2023-12-11T08:57:31.813Z,12.80
2023-12-11T08:59:59.217Z,12.80
2023-12-11T09:02:26.137Z,12.80
2023-12-11T09:04:53.203Z,12.80
2023-12-11T09:07:20.355Z,12.70
2023-12-11T09:09:47.463Z,12.80
2023-12-11T09:12:23.413Z,12.70
2023-12-11T09:14:57.954Z,12.70
2023-12-11T09:17:25.083Z,12.60
2023-12-11T09:19:55.463Z,12.60
2023-12-11T09:22:23.974Z,12.60
2023-12-11T09:24:51.340Z,12.60
2023-12-11T09:27:18.398Z,12.60
2023-12-11T09:29:49.262Z,12.60
2023-12-11T09:32:16.695Z,12.70
2023-12-11T09:34:43.885Z,12.70
2023-12-11T09:37:10.935Z,12.70
2023-12-11T09:39:39.416Z,12.80
2023-12-11T09:42:08.517Z,12.80
2023-12-11T09:44:37.101Z,12.80
2023-12-11T09:47:14.543Z,12.80
2023-12-11T09:49:41.642Z,12.90
2023-12-11T09:52:08.808Z,12.90
2023-12-11T09:54:36.194Z,12.90
2023-12-11T09:57:03.560Z,12.90
2023-12-11T09:59:31.882Z,12.90
2023-12-11T10:01:59.204Z,13.00
2023-12-11T10:04:26.267Z,13.00
2023-12-11T10:06:53.595Z,13.00
2023-12-11T10:09:31.176Z,12.90
2023-12-11T10:12:03.917Z,12.90
2023-12-11T10:14:31.703Z,12.90
2023-12-11T10:16:59.111Z,12.90
2023-12-11T10:19:35.685Z,12.90
2023-12-11T10:22:02.881Z,12.90
2023-12-11T10:24:30.637Z,13.00
2023-12-11T10:26:58.353Z,14.90
2023-12-11T10:29:27.126Z,13.00
2023-12-11T10:32:05.084Z,13.10
2023-12-11T10:34:47.635Z,13.00
2023-12-11T10:37:15.207Z,13.00
2023-12-11T10:40:00.766Z,13.00
2023-12-11T10:42:28.619Z,13.00
2023-12-11T10:44:59.606Z,12.90
2023-12-11T10:47:31.482Z,13.00
2023-12-11T10:50:03.136Z,13.00
2023-12-11T10:52:30.431Z,13.00
2023-12-11T10:54:57.266Z,13.10
2023-12-11T10:57:25.480Z,13.20
2023-12-11T10:59:52.867Z,13.20
2023-12-11T11:02:23.658Z,13.20
2023-12-11T11:04:50.530Z,13.30
2023-12-11T11:07:34.541Z,13.50
2023-12-11T11:10:05.165Z,13.60
2023-12-11T11:12:58.694Z,13.60
2023-12-11T11:15:26.336Z,13.50
2023-12-11T11:18:11.482Z,13.40
2023-12-11T11:20:40.610Z,13.10
2023-12-11T11:23:32.626Z,13.20
2023-12-11T11:26:00.501Z,13.80
2023-12-11T11:28:45.314Z,13.00
2023-12-11T11:31:23.084Z,13.00
2023-12-11T11:33:56.673Z,12.90
2023-12-11T11:36:44.881Z,13.10
2023-12-11T11:39:11.840Z,13.10
2023-12-11T11:41:39.448Z,13.30
2023-12-11T11:44:07.963Z,14.40
2023-12-11T11:46:55.472Z,13.80
2023-12-11T11:49:29.380Z,13.80
2023-12-11T11:51:57.020Z,13.80
2023-12-11T11:54:27.216Z,13.80
2023-12-11T11:56:54.210Z,13.70
2023-12-11T11:59:21.066Z,13.70
2023-12-11T12:01:59.553Z,13.60
2023-12-11T12:04:30.287Z,13.70
2023-12-11T12:07:05.571Z,13.60
2023-12-11T12:09:34.126Z,13.60
2023-12-11T12:12:01.870Z,13.40
2023-12-11T12:14:28.922Z,14.20
2023-12-11T12:16:56.412Z,13.40
2023-12-11T12:19:35.905Z,13.40
2023-12-11T12:22:03.782Z,13.30
2023-12-11T12:24:31.531Z,13.40
2023-12-11T12:27:07.575Z,14.40
2023-12-11T12:29:36.141Z,13.30
2023-12-11T12:32:03.906Z,13.30
2023-12-11T12:34:33.921Z,13.30
2023-12-11T12:37:02.772Z,13.20
2023-12-11T12:39:29.850Z,13.20
2023-12-11T12:41:57.396Z,13.30
2023-12-11T12:44:24.198Z,13.30
2023-12-11T12:46:51.480Z,13.30
2023-12-11T12:49:18.775Z,13.20
2023-12-11T12:51:53.635Z,13.30
2023-12-11T12:54:21.564Z,13.20
2023-12-11T12:56:56.775Z,13.20
2023-12-11T12:59:24.614Z,13.20
2023-12-11T13:01:51.844Z,13.20
2023-12-11T13:04:18.977Z,13.20
2023-12-11T13:06:48.552Z,13.20
2023-12-11T13:09:30.226Z,13.20
2023-12-11T13:11:57.089Z,13.10
2023-12-11T13:14:26.804Z,13.10
2023-12-11T13:16:54.564Z,13.10
2023-12-11T13:19:21.629Z,13.20
2023-12-11T13:21:49.189Z,13.20
2023-12-11T13:24:16.026Z,13.20
2023-12-11T13:26:42.843Z,13.20
2023-12-11T13:29:09.657Z,13.10
2023-12-11T13:31:36.456Z,13.20
2023-12-11T13:34:03.632Z,13.20
2023-12-11T13:36:30.480Z,13.20
2023-12-11T13:38:57.277Z,13.10
2023-12-11T13:41:24.028Z,13.10
2023-12-11T13:43:50.806Z,13.10
2023-12-11T13:46:17.651Z,13.10
2023-12-11T13:48:45.713Z,13.10
2023-12-11T13:51:12.604Z,13.00
2023-12-11T13:53:39.610Z,13.10
2023-12-11T13:56:07.077Z,13.10
2023-12-11T13:58:33.961Z,13.10
2023-12-11T14:01:02.049Z,13.10
2023-12-11T14:03:29.029Z,13.00
2023-12-11T14:05:55.987Z,13.00
2023-12-11T14:08:22.844Z,13.00
2023-12-11T14:10:49.912Z,13.00
2023-12-11T14:13:16.782Z,12.90
2023-12-11T14:15:46.820Z,13.10
2023-12-11T14:18:15.041Z,13.20
2023-12-11T14:20:41.899Z,13.10
2023-12-11T14:23:08.725Z,13.10
2023-12-11T14:25:35.602Z,13.00
2023-12-11T14:28:05.464Z,13.00
2023-12-11T14:30:41.262Z,13.10
2023-12-11T14:33:08.574Z,13.00
2023-12-11T14:35:37.002Z,14.00
2023-12-11T14:38:05.263Z,13.00
2023-12-11T14:40:32.251Z,13.10
2023-12-11T14:43:00.907Z,12.90
2023-12-11T14:45:27.753Z,13.00
2023-12-11T14:47:54.577Z,13.00
2023-12-11T14:50:21.465Z,13.00
2023-12-11T14:52:48.530Z,12.90
2023-12-11T14:55:24.510Z,12.90
2023-12-11T14:57:52.994Z,13.10
2023-12-11T15:00:19.933Z,13.00
2023-12-11T15:02:46.836Z,13.10
2023-12-11T15:05:13.673Z,12.90
2023-12-11T15:07:40.690Z,12.90
2023-12-11T15:10:08.218Z,12.90
2023-12-11T15:12:36.730Z,13.10
2023-12-11T15:15:06.137Z,12.90
2023-12-11T15:17:33.715Z,13.00
2023-12-11T15:20:07.355Z,13.00
2023-12-11T15:22:34.476Z,13.00
2023-12-11T15:25:01.365Z,13.60
2023-12-11T15:27:28.547Z,12.90
2023-12-11T15:29:55.493Z,12.90
2023-12-11T15:32:24.101Z,12.90
2023-12-11T15:34:50.948Z,12.80
2023-12-11T15:37:17.810Z,12.80
2023-12-11T15:39:44.699Z,13.00
2023-12-11T15:42:11.604Z,12.70
2023-12-11T15:44:38.494Z,12.70
2023-12-11T15:47:07.749Z,12.80
2023-12-11T15:49:37.211Z,12.70
2023-12-11T15:52:05.389Z,12.80
2023-12-11T15:54:32.220Z,12.70
2023-12-11T15:56:59.129Z,12.60
2023-12-11T15:59:26.056Z,12.60
2023-12-11T16:01:52.930Z,12.50
2023-12-11T16:04:19.889Z,12.50
2023-12-11T16:06:46.898Z,13.20
2023-12-11T16:09:15.301Z,12.40
2023-12-11T16:11:42.129Z,12.40
2023-12-11T16:14:08.990Z,12.30
2023-12-11T16:16:38.396Z,12.30
2023-12-11T16:19:05.878Z,12.30
2023-12-11T16:21:39.828Z,12.30
2023-12-11T16:24:07.054Z,12.40
2023-12-11T16:26:33.925Z,12.50
2023-12-11T16:29:00.803Z,12.40
2023-12-11T16:31:27.707Z,12.50
2023-12-11T16:33:54.723Z,12.50
2023-12-11T16:36:21.782Z,12.50
2023-12-11T16:38:48.819Z,12.60
2023-12-11T16:41:26.920Z,13.40
2023-12-11T16:43:54.918Z,12.50
2023-12-11T16:46:22.187Z,12.60
2023-12-11T16:48:49.171Z,12.60
2023-12-11T16:51:16.167Z,12.80
2023-12-11T16:53:46.585Z,12.60
2023-12-11T16:56:14.212Z,12.70
2023-12-11T16:58:42.489Z,12.80
2023-12-11T17:01:09.587Z,12.80
2023-12-11T17:03:36.673Z,12.80
2023-12-11T17:06:03.665Z,12.80
2023-12-11T17:08:30.487Z,12.80
2023-12-11T17:10:57.264Z,12.70
2023-12-11T17:13:24.141Z,12.50
2023-12-11T17:15:50.964Z,13.60
2023-12-11T17:18:18.250Z,12.60
2023-12-11T17:20:45.085Z,12.60
2023-12-11T17:23:11.878Z,13.30
2023-12-11T17:25:38.696Z,12.50
2023-12-11T17:28:05.837Z,13.00
2023-12-11T17:30:32.925Z,12.80
2023-12-11T17:32:59.857Z,12.20
2023-12-11T17:35:26.917Z,12.80
2023-12-11T17:37:53.738Z,12.30
2023-12-11T17:40:20.642Z,12.20
2023-12-11T17:42:49.232Z,12.30
2023-12-11T17:45:16.535Z,12.40
2023-12-11T17:47:43.721Z,12.40
2023-12-11T17:50:11.000Z,12.40
2023-12-11T17:52:38.484Z,12.40
2023-12-11T17:55:09.501Z,12.40
2023-12-11T17:57:36.706Z,12.40
2023-12-11T18:00:05.910Z,12.40
2023-12-11T18:02:32.686Z,12.60
2023-12-11T18:04:59.602Z,12.50
2023-12-11T18:07:27.052Z,12.60
2023-12-11T18:09:54.203Z,12.60
2023-12-11T18:12:21.910Z,12.50
2023-12-11T18:14:48.940Z,12.60
2023-12-11T18:17:16.382Z,12.60
2023-12-11T18:19:43.514Z,13.60
2023-12-11T18:22:10.404Z,12.50
2023-12-11T18:24:37.243Z,12.50
2023-12-11T18:27:04.166Z,12.30
2023-12-11T18:29:30.985Z,12.40
2023-12-11T18:31:57.762Z,12.30
2023-12-11T18:34:32.125Z,12.30
2023-12-11T18:37:06.703Z,12.30
2023-12-11T18:39:33.902Z,12.40
2023-12-11T18:42:01.012Z,12.30
2023-12-11T18:44:27.841Z,12.30
2023-12-11T18:46:57.277Z,12.20
2023-12-11T18:49:26.693Z,12.20
2023-12-11T18:51:53.510Z,12.70
2023-12-11T18:54:20.260Z,12.10
2023-12-11T18:56:47.438Z,12.00
2023-12-11T18:59:15.871Z,12.10
2023-12-11T19:01:43.592Z,12.10
2023-12-11T19:04:10.862Z,12.10
2023-12-11T19:06:37.795Z,12.30
2023-12-11T19:09:05.366Z,12.90
2023-12-11T19:11:33.018Z,12.40
2023-12-11T19:14:00.130Z,12.50
2023-12-11T19:16:27.044Z,12.40
2023-12-11T19:18:54.046Z,12.50
2023-12-11T19:21:22.176Z,12.50
2023-12-11T19:23:52.131Z,12.50
2023-12-11T19:26:19.585Z,12.40
2023-12-11T19:28:46.504Z,12.30
2023-12-11T19:31:13.657Z,12.20
2023-12-11T19:33:40.741Z,12.20
2023-12-11T19:36:08.097Z,12.10
2023-12-11T19:38:34.994Z,12.30
2023-12-11T19:41:01.748Z,11.80
2023-12-11T19:43:28.595Z,12.20
2023-12-11T19:45:56.134Z,12.10
2023-12-11T19:48:24.683Z,12.10
2023-12-11T19:50:51.681Z,12.10
2023-12-11T19:53:21.584Z,12.20
2023-12-11T19:55:48.411Z,12.20
2023-12-11T19:58:15.277Z,12.10
2023-12-11T20:00:42.646Z,12.20
2023-12-11T20:03:09.623Z,12.20
2023-12-11T20:05:36.447Z,12.20
2023-12-11T20:08:03.454Z,12.20
2023-12-11T20:10:31.086Z,12.50
2023-12-11T20:12:58.009Z,12.40
2023-12-11T20:15:24.816Z,12.40
2023-12-11T20:17:52.757Z,12.50
2023-12-11T20:20:20.207Z,12.70
2023-12-11T20:22:47.178Z,12.70
2023-12-11T20:25:14.215Z,12.70
2023-12-11T20:27:41.052Z,12.90
2023-12-11T20:30:08.500Z,13.70
2023-12-11T20:32:35.734Z,12.90
2023-12-11T20:35:03.149Z,12.80
2023-12-11T20:37:30.238Z,12.90
2023-12-11T20:39:57.364Z,12.70
2023-12-11T20:42:24.310Z,12.70
2023-12-11T20:44:54.321Z,12.80
2023-12-11T20:47:21.079Z,12.70
2023-12-11T20:49:48.056Z,12.70
2023-12-11T20:52:14.923Z,12.70
2023-12-11T20:54:44.650Z,12.70
2023-12-11T20:57:11.901Z,12.80
2023-12-11T20:59:38.643Z,12.80
2023-12-11T21:02:05.664Z,12.90
2023-12-11T21:04:32.686Z,12.90
2023-12-11T21:06:59.599Z,12.90
2023-12-11T21:09:26.417Z,12.90
2023-12-11T21:11:53.173Z,12.90
2023-12-11T21:14:20.495Z,12.80
2023-12-11T21:16:47.387Z,12.80
2023-12-11T21:19:14.923Z,12.90
2023-12-11T21:21:41.955Z,12.70
2023-12-11T21:24:09.877Z,12.80
2023-12-11T21:26:37.205Z,12.80
2023-12-11T21:29:04.273Z,12.90
2023-12-11T21:31:31.365Z,12.90
2023-12-11T21:33:59.279Z,12.80
2023-12-11T21:36:30.726Z,12.90
2023-12-11T21:38:58.270Z,12.80
2023-12-11T21:41:25.091Z,12.90
2023-12-11T21:43:53.047Z,12.90
2023-12-11T21:46:20.582Z,12.90
2023-12-11T21:48:49.768Z,13.00
2023-12-11T21:51:18.765Z,13.00
2023-12-11T21:53:46.497Z,13.00
2023-12-11T21:56:14.391Z,13.00
2023-12-11T21:58:42.118Z,12.90
2023-12-11T22:01:09.007Z,12.90
2023-12-11T22:03:35.934Z,12.90
2023-12-11T22:06:03.766Z,12.70
2023-12-11T22:08:30.823Z,12.90
2023-12-11T22:10:57.565Z,12.70
2023-12-11T22:13:24.600Z,12.70
2023-12-11T22:15:51.618Z,12.70
2023-12-11T22:18:18.456Z,12.80
2023-12-11T22:20:45.295Z,12.70
2023-12-11T22:23:12.685Z,12.80
2023-12-11T22:25:39.588Z,12.80
2023-12-11T22:28:06.428Z,12.80
2023-12-11T22:30:33.250Z,12.80
2023-12-11T22:33:00.224Z,12.70
2023-12-11T22:35:27.075Z,12.70
2023-12-11T22:37:54.359Z,12.80
2023-12-11T22:40:21.453Z,12.40
2023-12-11T22:42:48.686Z,13.10
2023-12-11T22:45:17.603Z,12.80
2023-12-11T22:47:44.884Z,12.70
2023-12-11T22:50:11.945Z,12.70
2023-12-11T22:52:38.920Z,12.80
2023-12-11T22:55:06.324Z,12.70
2023-12-11T22:57:33.619Z,12.80
2023-12-11T23:00:00.725Z,12.80
2023-12-11T23:02:27.722Z,12.80
2023-12-11T23:04:56.616Z,12.80
2023-12-11T23:07:23.857Z,13.10
2023-12-11T23:09:50.851Z,12.80
2023-12-11T23:12:18.276Z,12.80
2023-12-11T23:14:45.191Z,12.70
2023-12-11T23:17:12.052Z,12.70
2023-12-11T23:19:38.908Z,12.80
2023-12-11T23:22:06.177Z,13.00
2023-12-11T23:24:32.995Z,12.80
2023-12-11T23:26:59.831Z,12.80
2023-12-11T23:29:26.696Z,13.70
2023-12-11T23:31:53.493Z,13.00
2023-12-11T23:34:20.374Z,13.00
2023-12-11T23:36:47.310Z,13.00
2023-12-11T23:39:14.126Z,13.10
2023-12-11T23:41:42.208Z,13.00
2023-12-11T23:44:09.080Z,13.10
2023-12-11T23:46:36.041Z,13.70
2023-12-11T23:49:03.316Z,13.30
2023-12-11T23:51:30.238Z,13.20
2023-12-11T23:53:57.016Z,13.10
2023-12-11T23:56:24.209Z,13.00
2023-12-11T23:58:51.446Z,13.00
